sensor_id;sensor_type;location;lat;lon;timestamp;P1;durP1;ratioP1;P2;durP2;ratioP2
65691;SDS011;52411;52.716;6.696;2024-02-14T00:01:06;4.20;;;2.60;;
65691;SDS011;52411;52.716;6.696;2024-02-14T00:03:34;6.68;;;2.40;;
65691;SDS011;52411;52.716;6.696;2024-02-14T00:05:59;3.90;;;2.10;;
65691;SDS011;52411;52.716;6.696;2024-02-14T00:08:25;5.30;;;2.58;;
65691;SDS011;52411;52.716;6.696;2024-02-14T00:10:51;5.00;;;2.80;;
65691;SDS011;52411;52.716;6.696;2024-02-14T00:13:16;6.65;;;2.47;;
65691;SDS011;52411;52.716;6.696;2024-02-14T00:15:45;5.80;;;3.40;;
65691;SDS011;52411;52.716;6.696;2024-02-14T00:18:11;5.35;;;2.63;;
65691;SDS011;52411;52.716;6.696;2024-02-14T00:20:37;6.65;;;2.78;;
65691;SDS011;52411;52.716;6.696;2024-02-14T00:23:04;4.78;;;2.63;;
65691;SDS011;52411;52.716;6.696;2024-02-14T00:25:29;6.32;;;2.78;;
65691;SDS011;52411;52.716;6.696;2024-02-14T00:27:55;5.25;;;2.90;;
65691;SDS011;52411;52.716;6.696;2024-02-14T00:30:21;5.35;;;2.47;;
65691;SDS011;52411;52.716;6.696;2024-02-14T00:32:48;6.15;;;3.38;;
65691;SDS011;52411;52.716;6.696;2024-02-14T00:35:14;4.95;;;2.60;;
65691;SDS011;52411;52.716;6.696;2024-02-14T00:37:39;6.38;;;2.88;;
65691;SDS011;52411;52.716;6.696;2024-02-14T00:40:05;4.20;;;2.80;;
65691;SDS011;52411;52.716;6.696;2024-02-14T00:42:31;6.10;;;2.78;;
65691;SDS011;52411;52.716;6.696;2024-02-14T00:44:56;4.75;;;2.35;;
65691;SDS011;52411;52.716;6.696;2024-02-14T00:47:22;4.68;;;2.65;;
65691;SDS011;52411;52.716;6.696;2024-02-14T00:49:48;5.55;;;2.60;;
65691;SDS011;52411;52.716;6.696;2024-02-14T00:52:13;7.47;;;3.00;;
65691;SDS011;52411;52.716;6.696;2024-02-14T00:54:39;5.70;;;3.20;;
65691;SDS011;52411;52.716;6.696;2024-02-14T00:57:05;6.30;;;3.38;;
65691;SDS011;52411;52.716;6.696;2024-02-14T00:59:30;5.05;;;2.72;;
65691;SDS011;52411;52.716;6.696;2024-02-14T01:01:56;4.88;;;2.63;;
65691;SDS011;52411;52.716;6.696;2024-02-14T01:04:21;6.85;;;3.20;;
65691;SDS011;52411;52.716;6.696;2024-02-14T01:06:47;4.13;;;2.40;;
65691;SDS011;52411;52.716;6.696;2024-02-14T01:09:14;6.40;;;2.72;;
65691;SDS011;52411;52.716;6.696;2024-02-14T01:11:40;6.57;;;2.90;;
65691;SDS011;52411;52.716;6.696;2024-02-14T01:14:05;6.20;;;2.80;;
65691;SDS011;52411;52.716;6.696;2024-02-14T01:16:31;5.95;;;2.72;;
65691;SDS011;52411;52.716;6.696;2024-02-14T01:18:56;4.25;;;2.38;;
65691;SDS011;52411;52.716;6.696;2024-02-14T01:21:22;5.20;;;2.65;;
65691;SDS011;52411;52.716;6.696;2024-02-14T01:23:47;5.72;;;2.80;;
65691;SDS011;52411;52.716;6.696;2024-02-14T01:26:13;3.90;;;2.08;;
65691;SDS011;52411;52.716;6.696;2024-02-14T01:28:39;4.43;;;2.53;;
65691;SDS011;52411;52.716;6.696;2024-02-14T01:31:05;6.03;;;2.58;;
65691;SDS011;52411;52.716;6.696;2024-02-14T01:33:30;4.40;;;2.70;;
65691;SDS011;52411;52.716;6.696;2024-02-14T01:35:56;4.13;;;2.20;;
65691;SDS011;52411;52.716;6.696;2024-02-14T01:38:22;5.85;;;3.00;;
65691;SDS011;52411;52.716;6.696;2024-02-14T01:40:48;4.55;;;2.40;;
65691;SDS011;52411;52.716;6.696;2024-02-14T01:43:14;4.95;;;2.78;;
65691;SDS011;52411;52.716;6.696;2024-02-14T01:45:40;2.83;;;2.17;;
65691;SDS011;52411;52.716;6.696;2024-02-14T01:48:05;4.13;;;2.60;;
65691;SDS011;52411;52.716;6.696;2024-02-14T01:50:33;5.22;;;2.60;;
65691;SDS011;52411;52.716;6.696;2024-02-14T01:53:00;3.70;;;2.22;;
65691;SDS011;52411;52.716;6.696;2024-02-14T01:55:26;4.28;;;2.28;;
65691;SDS011;52411;52.716;6.696;2024-02-14T01:57:53;4.10;;;2.33;;
65691;SDS011;52411;52.716;6.696;2024-02-14T02:00:19;4.97;;;2.50;;
65691;SDS011;52411;52.716;6.696;2024-02-14T02:02:45;3.92;;;2.70;;
65691;SDS011;52411;52.716;6.696;2024-02-14T02:05:12;5.00;;;2.63;;
65691;SDS011;52411;52.716;6.696;2024-02-14T02:07:38;4.22;;;2.60;;
65691;SDS011;52411;52.716;6.696;2024-02-14T02:10:08;4.38;;;2.33;;
65691;SDS011;52411;52.716;6.696;2024-02-14T02:12:36;3.70;;;2.15;;
65691;SDS011;52411;52.716;6.696;2024-02-14T02:15:04;4.20;;;2.80;;
65691;SDS011;52411;52.716;6.696;2024-02-14T02:17:36;6.65;;;2.67;;
65691;SDS011;52411;52.716;6.696;2024-02-14T02:20:01;4.50;;;2.80;;
65691;SDS011;52411;52.716;6.696;2024-02-14T02:22:27;4.88;;;2.40;;
65691;SDS011;52411;52.716;6.696;2024-02-14T02:24:57;5.65;;;2.70;;
65691;SDS011;52411;52.716;6.696;2024-02-14T02:27:22;3.70;;;2.40;;
65691;SDS011;52411;52.716;6.696;2024-02-14T02:29:48;3.58;;;2.33;;
65691;SDS011;52411;52.716;6.696;2024-02-14T02:32:13;4.40;;;2.70;;
65691;SDS011;52411;52.716;6.696;2024-02-14T02:34:41;5.82;;;2.85;;
65691;SDS011;52411;52.716;6.696;2024-02-14T02:37:06;4.55;;;2.90;;
65691;SDS011;52411;52.716;6.696;2024-02-14T02:39:32;4.40;;;2.35;;
65691;SDS011;52411;52.716;6.696;2024-02-14T02:41:58;4.57;;;2.75;;
65691;SDS011;52411;52.716;6.696;2024-02-14T02:44:24;3.67;;;2.38;;
65691;SDS011;52411;52.716;6.696;2024-02-14T02:46:50;4.57;;;2.70;;
65691;SDS011;52411;52.716;6.696;2024-02-14T02:49:16;3.72;;;2.53;;
65691;SDS011;52411;52.716;6.696;2024-02-14T02:51:41;4.13;;;2.38;;
65691;SDS011;52411;52.716;6.696;2024-02-14T02:54:07;5.20;;;2.90;;
65691;SDS011;52411;52.716;6.696;2024-02-14T02:56:33;3.58;;;2.10;;
65691;SDS011;52411;52.716;6.696;2024-02-14T02:58:59;4.25;;;2.78;;
65691;SDS011;52411;52.716;6.696;2024-02-14T03:01:24;4.47;;;2.70;;
65691;SDS011;52411;52.716;6.696;2024-02-14T03:03:55;4.63;;;2.75;;
65691;SDS011;52411;52.716;6.696;2024-02-14T03:06:21;4.05;;;2.65;;
65691;SDS011;52411;52.716;6.696;2024-02-14T03:08:47;4.72;;;2.80;;
65691;SDS011;52411;52.716;6.696;2024-02-14T03:11:14;4.40;;;2.67;;
65691;SDS011;52411;52.716;6.696;2024-02-14T03:13:40;4.82;;;3.05;;
65691;SDS011;52411;52.716;6.696;2024-02-14T03:16:06;4.03;;;2.53;;
65691;SDS011;52411;52.716;6.696;2024-02-14T03:18:32;5.30;;;2.97;;
65691;SDS011;52411;52.716;6.696;2024-02-14T03:20:57;5.32;;;2.72;;
65691;SDS011;52411;52.716;6.696;2024-02-14T03:23:23;4.78;;;2.45;;
65691;SDS011;52411;52.716;6.696;2024-02-14T03:25:49;3.75;;;2.10;;
65691;SDS011;52411;52.716;6.696;2024-02-14T03:28:16;4.95;;;2.78;;
65691;SDS011;52411;52.716;6.696;2024-02-14T03:30:42;4.97;;;2.40;;
65691;SDS011;52411;52.716;6.696;2024-02-14T03:33:08;5.53;;;3.00;;
65691;SDS011;52411;52.716;6.696;2024-02-14T03:35:34;4.80;;;2.75;;
65691;SDS011;52411;52.716;6.696;2024-02-14T03:38:01;5.32;;;2.80;;
65691;SDS011;52411;52.716;6.696;2024-02-14T03:40:26;3.58;;;2.25;;
65691;SDS011;52411;52.716;6.696;2024-02-14T03:42:55;4.82;;;2.45;;
65691;SDS011;52411;52.716;6.696;2024-02-14T03:45:21;5.20;;;2.60;;
65691;SDS011;52411;52.716;6.696;2024-02-14T03:47:46;4.32;;;2.55;;
65691;SDS011;52411;52.716;6.696;2024-02-14T03:50:12;4.50;;;2.75;;
65691;SDS011;52411;52.716;6.696;2024-02-14T03:52:37;5.03;;;2.40;;
65691;SDS011;52411;52.716;6.696;2024-02-14T03:55:05;4.97;;;2.72;;
65691;SDS011;52411;52.716;6.696;2024-02-14T03:57:31;3.83;;;2.40;;
65691;SDS011;52411;52.716;6.696;2024-02-14T04:00:00;4.03;;;2.05;;
65691;SDS011;52411;52.716;6.696;2024-02-14T04:02:29;4.97;;;2.63;;
65691;SDS011;52411;52.716;6.696;2024-02-14T04:04:56;5.50;;;2.95;;
65691;SDS011;52411;52.716;6.696;2024-02-14T04:07:22;4.47;;;2.38;;
65691;SDS011;52411;52.716;6.696;2024-02-14T04:09:47;6.43;;;2.58;;
65691;SDS011;52411;52.716;6.696;2024-02-14T04:12:13;4.85;;;2.55;;
65691;SDS011;52411;52.716;6.696;2024-02-14T04:14:39;5.10;;;2.60;;
65691;SDS011;52411;52.716;6.696;2024-02-14T04:17:04;3.60;;;1.83;;
65691;SDS011;52411;52.716;6.696;2024-02-14T04:19:32;4.93;;;2.45;;
65691;SDS011;52411;52.716;6.696;2024-02-14T04:21:58;3.80;;;2.10;;
65691;SDS011;52411;52.716;6.696;2024-02-14T04:24:24;3.15;;;1.95;;
65691;SDS011;52411;52.716;6.696;2024-02-14T04:26:49;3.72;;;2.10;;
65691;SDS011;52411;52.716;6.696;2024-02-14T04:29:15;3.72;;;2.20;;
65691;SDS011;52411;52.716;6.696;2024-02-14T04:31:40;5.03;;;2.60;;
65691;SDS011;52411;52.716;6.696;2024-02-14T04:34:08;3.58;;;2.17;;
65691;SDS011;52411;52.716;6.696;2024-02-14T04:36:34;5.68;;;2.50;;
65691;SDS011;52411;52.716;6.696;2024-02-14T04:39:01;3.72;;;2.13;;
65691;SDS011;52411;52.716;6.696;2024-02-14T04:41:26;4.50;;;2.05;;
65691;SDS011;52411;52.716;6.696;2024-02-14T04:43:52;5.32;;;2.35;;
65691;SDS011;52411;52.716;6.696;2024-02-14T04:46:17;3.15;;;1.80;;
65691;SDS011;52411;52.716;6.696;2024-02-14T04:48:43;4.72;;;2.30;;
65691;SDS011;52411;52.716;6.696;2024-02-14T04:51:09;5.88;;;2.53;;
65691;SDS011;52411;52.716;6.696;2024-02-14T04:53:34;4.35;;;2.47;;
65691;SDS011;52411;52.716;6.696;2024-02-14T04:56:00;4.90;;;2.35;;
65691;SDS011;52411;52.716;6.696;2024-02-14T04:58:26;3.53;;;2.20;;
65691;SDS011;52411;52.716;6.696;2024-02-14T05:00:52;4.68;;;2.67;;
65691;SDS011;52411;52.716;6.696;2024-02-14T05:03:18;4.60;;;2.30;;
65691;SDS011;52411;52.716;6.696;2024-02-14T05:05:44;4.30;;;2.20;;
65691;SDS011;52411;52.716;6.696;2024-02-14T05:08:09;4.10;;;2.17;;
65691;SDS011;52411;52.716;6.696;2024-02-14T05:10:35;4.82;;;2.20;;
65691;SDS011;52411;52.716;6.696;2024-02-14T05:13:01;4.38;;;2.25;;
65691;SDS011;52411;52.716;6.696;2024-02-14T05:15:27;4.63;;;2.30;;
65691;SDS011;52411;52.716;6.696;2024-02-14T05:17:52;4.78;;;2.17;;
65691;SDS011;52411;52.716;6.696;2024-02-14T05:20:18;3.65;;;2.03;;
65691;SDS011;52411;52.716;6.696;2024-02-14T05:22:44;4.90;;;2.25;;
65691;SDS011;52411;52.716;6.696;2024-02-14T05:25:09;4.47;;;2.33;;
65691;SDS011;52411;52.716;6.696;2024-02-14T05:27:35;3.00;;;1.80;;
65691;SDS011;52411;52.716;6.696;2024-02-14T05:30:05;4.55;;;2.28;;
65691;SDS011;52411;52.716;6.696;2024-02-14T05:32:31;3.53;;;2.08;;
65691;SDS011;52411;52.716;6.696;2024-02-14T05:34:57;4.15;;;2.17;;
65691;SDS011;52411;52.716;6.696;2024-02-14T05:37:23;3.50;;;2.10;;
65691;SDS011;52411;52.716;6.696;2024-02-14T05:39:49;3.97;;;2.10;;
65691;SDS011;52411;52.716;6.696;2024-02-14T05:42:16;4.00;;;2.10;;
65691;SDS011;52411;52.716;6.696;2024-02-14T05:44:42;5.05;;;2.38;;
65691;SDS011;52411;52.716;6.696;2024-02-14T05:47:08;4.82;;;2.30;;
65691;SDS011;52411;52.716;6.696;2024-02-14T05:49:35;3.97;;;2.25;;
65691;SDS011;52411;52.716;6.696;2024-02-14T05:52:00;4.28;;;2.08;;
65691;SDS011;52411;52.716;6.696;2024-02-14T05:54:26;4.20;;;2.17;;
65691;SDS011;52411;52.716;6.696;2024-02-14T05:56:52;4.38;;;2.35;;
65691;SDS011;52411;52.716;6.696;2024-02-14T05:59:17;4.43;;;2.35;;
65691;SDS011;52411;52.716;6.696;2024-02-14T06:01:43;5.45;;;2.60;;
65691;SDS011;52411;52.716;6.696;2024-02-14T06:04:08;4.32;;;2.35;;
65691;SDS011;52411;52.716;6.696;2024-02-14T06:06:34;5.20;;;2.53;;
65691;SDS011;52411;52.716;6.696;2024-02-14T06:08:59;6.18;;;3.40;;
65691;SDS011;52411;52.716;6.696;2024-02-14T06:11:25;6.68;;;3.00;;
65691;SDS011;52411;52.716;6.696;2024-02-14T06:13:51;5.82;;;2.80;;
65691;SDS011;52411;52.716;6.696;2024-02-14T06:16:16;5.85;;;2.95;;
65691;SDS011;52411;52.716;6.696;2024-02-14T06:18:44;6.07;;;2.50;;
65691;SDS011;52411;52.716;6.696;2024-02-14T06:21:10;6.18;;;3.08;;
65691;SDS011;52411;52.716;6.696;2024-02-14T06:23:35;6.25;;;3.20;;
65691;SDS011;52411;52.716;6.696;2024-02-14T06:26:02;6.18;;;3.17;;
65691;SDS011;52411;52.716;6.696;2024-02-14T06:28:29;6.40;;;2.95;;
65691;SDS011;52411;52.716;6.696;2024-02-14T06:30:54;5.18;;;2.70;;
65691;SDS011;52411;52.716;6.696;2024-02-14T06:33:20;7.20;;;3.10;;
65691;SDS011;52411;52.716;6.696;2024-02-14T06:35:46;6.10;;;2.97;;
65691;SDS011;52411;52.716;6.696;2024-02-14T06:38:11;6.18;;;3.17;;
65691;SDS011;52411;52.716;6.696;2024-02-14T06:40:37;6.72;;;3.38;;
65691;SDS011;52411;52.716;6.696;2024-02-14T06:43:02;5.32;;;3.47;;
65691;SDS011;52411;52.716;6.696;2024-02-14T06:45:28;6.18;;;3.00;;
65691;SDS011;52411;52.716;6.696;2024-02-14T06:47:54;6.15;;;3.25;;
65691;SDS011;52411;52.716;6.696;2024-02-14T06:50:20;7.45;;;3.45;;
65691;SDS011;52411;52.716;6.696;2024-02-14T06:52:46;7.00;;;3.55;;
65691;SDS011;52411;52.716;6.696;2024-02-14T06:55:12;6.30;;;3.28;;
65691;SDS011;52411;52.716;6.696;2024-02-14T06:57:38;7.28;;;3.30;;
65691;SDS011;52411;52.716;6.696;2024-02-14T07:00:03;8.60;;;3.40;;
65691;SDS011;52411;52.716;6.696;2024-02-14T07:02:31;7.75;;;3.40;;
65691;SDS011;52411;52.716;6.696;2024-02-14T07:04:57;7.55;;;3.58;;
65691;SDS011;52411;52.716;6.696;2024-02-14T07:07:22;7.32;;;3.80;;
65691;SDS011;52411;52.716;6.696;2024-02-14T07:09:48;7.70;;;3.13;;
65691;SDS011;52411;52.716;6.696;2024-02-14T07:12:14;7.60;;;3.60;;
65691;SDS011;52411;52.716;6.696;2024-02-14T07:14:39;7.13;;;3.40;;
65691;SDS011;52411;52.716;6.696;2024-02-14T07:17:05;7.65;;;3.95;;
65691;SDS011;52411;52.716;6.696;2024-02-14T07:19:31;8.32;;;3.60;;
65691;SDS011;52411;52.716;6.696;2024-02-14T07:21:56;11.30;;;4.25;;
65691;SDS011;52411;52.716;6.696;2024-02-14T07:24:22;7.95;;;3.72;;
65691;SDS011;52411;52.716;6.696;2024-02-14T07:26:48;7.97;;;3.40;;
65691;SDS011;52411;52.716;6.696;2024-02-14T07:29:13;7.15;;;3.05;;
65691;SDS011;52411;52.716;6.696;2024-02-14T07:31:39;8.23;;;3.88;;
65691;SDS011;52411;52.716;6.696;2024-02-14T07:34:05;8.30;;;3.65;;
65691;SDS011;52411;52.716;6.696;2024-02-14T07:36:31;7.95;;;3.63;;
65691;SDS011;52411;52.716;6.696;2024-02-14T07:38:57;6.93;;;3.45;;
65691;SDS011;52411;52.716;6.696;2024-02-14T07:41:22;8.63;;;3.80;;
65691;SDS011;52411;52.716;6.696;2024-02-14T07:43:48;9.23;;;3.80;;
65691;SDS011;52411;52.716;6.696;2024-02-14T07:46:16;7.75;;;3.50;;
65691;SDS011;52411;52.716;6.696;2024-02-14T07:48:45;10.90;;;4.28;;
65691;SDS011;52411;52.716;6.696;2024-02-14T07:51:11;8.27;;;3.58;;
65691;SDS011;52411;52.716;6.696;2024-02-14T07:53:37;7.78;;;3.50;;
65691;SDS011;52411;52.716;6.696;2024-02-14T07:56:03;10.38;;;4.47;;
65691;SDS011;52411;52.716;6.696;2024-02-14T07:58:29;10.35;;;4.43;;
65691;SDS011;52411;52.716;6.696;2024-02-14T08:00:54;8.27;;;3.95;;
65691;SDS011;52411;52.716;6.696;2024-02-14T08:03:20;11.30;;;4.10;;
65691;SDS011;52411;52.716;6.696;2024-02-14T08:05:45;9.07;;;4.10;;
65691;SDS011;52411;52.716;6.696;2024-02-14T08:08:11;8.48;;;3.95;;
65691;SDS011;52411;52.716;6.696;2024-02-14T08:10:37;11.30;;;5.10;;
65691;SDS011;52411;52.716;6.696;2024-02-14T08:13:02;8.88;;;4.13;;
65691;SDS011;52411;52.716;6.696;2024-02-14T08:15:29;9.23;;;4.80;;
65691;SDS011;52411;52.716;6.696;2024-02-14T08:17:54;11.93;;;4.00;;
65691;SDS011;52411;52.716;6.696;2024-02-14T08:20:21;9.93;;;4.28;;
65691;SDS011;52411;52.716;6.696;2024-02-14T08:22:48;9.68;;;4.60;;
65691;SDS011;52411;52.716;6.696;2024-02-14T08:25:13;12.48;;;4.28;;
65691;SDS011;52411;52.716;6.696;2024-02-14T08:27:39;9.18;;;4.50;;
65691;SDS011;52411;52.716;6.696;2024-02-14T08:30:05;9.68;;;4.32;;
65691;SDS011;52411;52.716;6.696;2024-02-14T08:32:31;11.52;;;4.45;;
65691;SDS011;52411;52.716;6.696;2024-02-14T08:34:58;10.02;;;4.15;;
65691;SDS011;52411;52.716;6.696;2024-02-14T08:37:23;12.63;;;4.80;;
65691;SDS011;52411;52.716;6.696;2024-02-14T08:39:50;8.77;;;4.45;;
65691;SDS011;52411;52.716;6.696;2024-02-14T08:42:15;9.30;;;4.30;;
65691;SDS011;52411;52.716;6.696;2024-02-14T08:44:41;10.60;;;4.65;;
65691;SDS011;52411;52.716;6.696;2024-02-14T08:47:06;8.73;;;4.22;;
65691;SDS011;52411;52.716;6.696;2024-02-14T08:49:32;10.63;;;4.07;;
65691;SDS011;52411;52.716;6.696;2024-02-14T08:51:58;9.70;;;4.20;;
65691;SDS011;52411;52.716;6.696;2024-02-14T08:54:24;10.10;;;4.47;;
65691;SDS011;52411;52.716;6.696;2024-02-14T08:56:50;12.23;;;4.90;;
65691;SDS011;52411;52.716;6.696;2024-02-14T08:59:18;11.25;;;4.63;;
65691;SDS011;52411;52.716;6.696;2024-02-14T09:01:44;7.65;;;3.83;;
65691;SDS011;52411;52.716;6.696;2024-02-14T09:04:10;8.55;;;3.83;;
65691;SDS011;52411;52.716;6.696;2024-02-14T09:06:36;10.07;;;4.22;;
65691;SDS011;52411;52.716;6.696;2024-02-14T09:09:04;8.07;;;3.80;;
65691;SDS011;52411;52.716;6.696;2024-02-14T09:11:29;7.28;;;3.47;;
65691;SDS011;52411;52.716;6.696;2024-02-14T09:13:56;8.13;;;3.92;;
65691;SDS011;52411;52.716;6.696;2024-02-14T09:16:27;9.27;;;4.13;;
65691;SDS011;52411;52.716;6.696;2024-02-14T09:18:53;7.75;;;3.53;;
65691;SDS011;52411;52.716;6.696;2024-02-14T09:21:18;6.65;;;3.30;;
65691;SDS011;52411;52.716;6.696;2024-02-14T09:23:46;11.35;;;4.00;;
65691;SDS011;52411;52.716;6.696;2024-02-14T09:26:12;7.97;;;3.47;;
65691;SDS011;52411;52.716;6.696;2024-02-14T09:28:40;8.85;;;3.88;;
65691;SDS011;52411;52.716;6.696;2024-02-14T09:31:05;8.60;;;3.38;;
65691;SDS011;52411;52.716;6.696;2024-02-14T09:33:31;7.20;;;3.20;;
65691;SDS011;52411;52.716;6.696;2024-02-14T09:35:57;8.13;;;3.38;;
65691;SDS011;52411;52.716;6.696;2024-02-14T09:38:22;7.70;;;3.53;;
65691;SDS011;52411;52.716;6.696;2024-02-14T09:40:52;8.90;;;3.33;;
65691;SDS011;52411;52.716;6.696;2024-02-14T09:45:52;10.63;;;3.30;;
65691;SDS011;52411;52.716;6.696;2024-02-14T09:48:19;6.88;;;3.22;;
65691;SDS011;52411;52.716;6.696;2024-02-14T09:50:46;11.43;;;4.07;;
65691;SDS011;52411;52.716;6.696;2024-02-14T09:53:14;7.47;;;3.22;;
65691;SDS011;52411;52.716;6.696;2024-02-14T09:55:40;6.13;;;3.10;;
65691;SDS011;52411;52.716;6.696;2024-02-14T09:58:07;6.88;;;3.25;;
65691;SDS011;52411;52.716;6.696;2024-02-14T10:00:33;6.85;;;3.35;;
65691;SDS011;52411;52.716;6.696;2024-02-14T10:02:59;7.15;;;3.47;;
65691;SDS011;52411;52.716;6.696;2024-02-14T10:05:25;6.75;;;3.50;;
65691;SDS011;52411;52.716;6.696;2024-02-14T10:07:51;6.85;;;3.10;;
65691;SDS011;52411;52.716;6.696;2024-02-14T10:10:16;7.57;;;3.13;;
65691;SDS011;52411;52.716;6.696;2024-02-14T10:12:42;7.03;;;3.80;;
65691;SDS011;52411;52.716;6.696;2024-02-14T10:15:08;7.85;;;3.53;;
65691;SDS011;52411;52.716;6.696;2024-02-14T10:17:34;10.93;;;4.47;;
65691;SDS011;52411;52.716;6.696;2024-02-14T10:20:00;9.65;;;3.55;;
65691;SDS011;52411;52.716;6.696;2024-02-14T10:22:36;9.60;;;4.05;;
65691;SDS011;52411;52.716;6.696;2024-02-14T10:25:03;12.57;;;4.50;;
65691;SDS011;52411;52.716;6.696;2024-02-14T10:27:33;8.73;;;3.97;;
65691;SDS011;52411;52.716;6.696;2024-02-14T10:30:06;7.57;;;3.38;;
65691;SDS011;52411;52.716;6.696;2024-02-14T10:32:34;7.00;;;3.08;;
65691;SDS011;52411;52.716;6.696;2024-02-14T10:35:03;9.02;;;3.67;;
65691;SDS011;52411;52.716;6.696;2024-02-14T10:37:33;7.47;;;3.50;;
65691;SDS011;52411;52.716;6.696;2024-02-14T10:40:01;8.43;;;3.78;;
65691;SDS011;52411;52.716;6.696;2024-02-14T10:42:28;7.72;;;3.47;;
65691;SDS011;52411;52.716;6.696;2024-02-14T10:44:54;8.50;;;4.32;;
65691;SDS011;52411;52.716;6.696;2024-02-14T10:47:20;9.50;;;4.18;;
65691;SDS011;52411;52.716;6.696;2024-02-14T10:49:49;7.78;;;3.75;;
65691;SDS011;52411;52.716;6.696;2024-02-14T10:52:16;7.75;;;3.72;;
65691;SDS011;52411;52.716;6.696;2024-02-14T10:54:46;8.38;;;4.15;;
65691;SDS011;52411;52.716;6.696;2024-02-14T10:57:17;9.35;;;3.50;;
65691;SDS011;52411;52.716;6.696;2024-02-14T10:59:46;7.85;;;3.67;;
65691;SDS011;52411;52.716;6.696;2024-02-14T11:02:13;6.60;;;3.28;;
65691;SDS011;52411;52.716;6.696;2024-02-14T11:04:40;7.00;;;3.35;;
65691;SDS011;52411;52.716;6.696;2024-02-14T11:07:08;8.27;;;4.05;;
65691;SDS011;52411;52.716;6.696;2024-02-14T11:09:38;7.10;;;3.38;;
65691;SDS011;52411;52.716;6.696;2024-02-14T11:12:08;8.75;;;3.67;;
65691;SDS011;52411;52.716;6.696;2024-02-14T11:14:35;6.28;;;2.97;;
65691;SDS011;52411;52.716;6.696;2024-02-14T11:17:04;7.90;;;3.40;;
65691;SDS011;52411;52.716;6.696;2024-02-14T11:19:34;7.53;;;3.20;;
65691;SDS011;52411;52.716;6.696;2024-02-14T11:22:12;5.93;;;3.20;;
65691;SDS011;52411;52.716;6.696;2024-02-14T11:24:45;5.15;;;2.78;;
65691;SDS011;52411;52.716;6.696;2024-02-14T11:27:11;7.60;;;3.40;;
65691;SDS011;52411;52.716;6.696;2024-02-14T11:29:38;6.65;;;3.50;;
65691;SDS011;52411;52.716;6.696;2024-02-14T11:32:05;6.40;;;3.10;;
65691;SDS011;52411;52.716;6.696;2024-02-14T11:34:33;6.85;;;3.60;;
65691;SDS011;52411;52.716;6.696;2024-02-14T11:36:59;8.10;;;3.80;;
65691;SDS011;52411;52.716;6.696;2024-02-14T11:39:25;5.93;;;2.80;;
65691;SDS011;52411;52.716;6.696;2024-02-14T11:41:51;5.60;;;2.80;;
65691;SDS011;52411;52.716;6.696;2024-02-14T11:44:18;6.18;;;3.22;;
65691;SDS011;52411;52.716;6.696;2024-02-14T11:46:45;5.82;;;3.05;;
65691;SDS011;52411;52.716;6.696;2024-02-14T11:49:11;6.05;;;2.97;;
65691;SDS011;52411;52.716;6.696;2024-02-14T11:51:37;6.22;;;3.15;;
65691;SDS011;52411;52.716;6.696;2024-02-14T11:54:03;6.55;;;3.40;;
65691;SDS011;52411;52.716;6.696;2024-02-14T11:56:32;6.03;;;3.00;;
65691;SDS011;52411;52.716;6.696;2024-02-14T11:59:01;5.40;;;2.85;;
65691;SDS011;52411;52.716;6.696;2024-02-14T12:01:32;5.82;;;3.00;;
65691;SDS011;52411;52.716;6.696;2024-02-14T12:03:59;5.90;;;3.40;;
65691;SDS011;52411;52.716;6.696;2024-02-14T12:06:27;6.40;;;3.03;;
65691;SDS011;52411;52.716;6.696;2024-02-14T12:08:54;6.15;;;3.05;;
65691;SDS011;52411;52.716;6.696;2024-02-14T12:11:19;6.72;;;3.33;;
65691;SDS011;52411;52.716;6.696;2024-02-14T12:13:49;6.85;;;3.28;;
65691;SDS011;52411;52.716;6.696;2024-02-14T12:16:15;5.15;;;2.80;;
65691;SDS011;52411;52.716;6.696;2024-02-14T12:18:41;7.20;;;2.97;;
65691;SDS011;52411;52.716;6.696;2024-02-14T12:21:06;6.70;;;3.00;;
65691;SDS011;52411;52.716;6.696;2024-02-14T12:23:32;6.00;;;2.75;;
65691;SDS011;52411;52.716;6.696;2024-02-14T12:26:02;6.03;;;3.10;;
65691;SDS011;52411;52.716;6.696;2024-02-14T12:28:29;5.85;;;3.13;;
65691;SDS011;52411;52.716;6.696;2024-02-14T12:30:56;6.68;;;3.30;;
65691;SDS011;52411;52.716;6.696;2024-02-14T12:33:22;7.43;;;3.10;;
65691;SDS011;52411;52.716;6.696;2024-02-14T12:35:55;6.68;;;3.15;;
65691;SDS011;52411;52.716;6.696;2024-02-14T12:38:23;6.85;;;2.90;;
65691;SDS011;52411;52.716;6.696;2024-02-14T12:40:49;9.85;;;3.33;;
65691;SDS011;52411;52.716;6.696;2024-02-14T12:43:16;7.78;;;3.45;;
65691;SDS011;52411;52.716;6.696;2024-02-14T12:45:41;6.03;;;3.22;;
65691;SDS011;52411;52.716;6.696;2024-02-14T12:48:09;6.13;;;3.45;;
65691;SDS011;52411;52.716;6.696;2024-02-14T12:50:36;5.75;;;3.10;;
65691;SDS011;52411;52.716;6.696;2024-02-14T12:53:09;6.72;;;3.55;;
65691;SDS011;52411;52.716;6.696;2024-02-14T12:55:35;6.55;;;3.30;;
65691;SDS011;52411;52.716;6.696;2024-02-14T12:58:01;6.40;;;3.30;;
65691;SDS011;52411;52.716;6.696;2024-02-14T13:00:28;6.95;;;3.20;;
65691;SDS011;52411;52.716;6.696;2024-02-14T13:02:56;8.45;;;4.00;;
65691;SDS011;52411;52.716;6.696;2024-02-14T13:05:23;7.55;;;3.50;;
65691;SDS011;52411;52.716;6.696;2024-02-14T13:07:49;6.50;;;3.83;;
65691;SDS011;52411;52.716;6.696;2024-02-14T13:10:15;6.30;;;3.65;;
65691;SDS011;52411;52.716;6.696;2024-02-14T13:12:41;7.00;;;3.58;;
65691;SDS011;52411;52.716;6.696;2024-02-14T13:15:08;7.22;;;3.72;;
65691;SDS011;52411;52.716;6.696;2024-02-14T13:17:34;8.15;;;3.88;;
65691;SDS011;52411;52.716;6.696;2024-02-14T13:20:00;7.50;;;3.65;;
65691;SDS011;52411;52.716;6.696;2024-02-14T13:22:26;7.35;;;3.65;;
65691;SDS011;52411;52.716;6.696;2024-02-14T13:24:52;7.40;;;3.80;;
65691;SDS011;52411;52.716;6.696;2024-02-14T13:27:18;6.38;;;3.67;;
65691;SDS011;52411;52.716;6.696;2024-02-14T13:29:46;6.43;;;3.25;;
65691;SDS011;52411;52.716;6.696;2024-02-14T13:32:12;5.80;;;3.42;;
65691;SDS011;52411;52.716;6.696;2024-02-14T13:34:37;5.90;;;3.30;;
65691;SDS011;52411;52.716;6.696;2024-02-14T13:37:03;9.45;;;3.55;;
65691;SDS011;52411;52.716;6.696;2024-02-14T13:39:29;6.43;;;3.40;;
65691;SDS011;52411;52.716;6.696;2024-02-14T13:41:55;5.35;;;2.80;;
65691;SDS011;52411;52.716;6.696;2024-02-14T13:44:23;5.93;;;3.17;;
65691;SDS011;52411;52.716;6.696;2024-02-14T13:46:49;5.68;;;3.05;;
65691;SDS011;52411;52.716;6.696;2024-02-14T13:49:15;5.93;;;3.00;;
65691;SDS011;52411;52.716;6.696;2024-02-14T13:51:46;4.90;;;2.67;;
65691;SDS011;52411;52.716;6.696;2024-02-14T13:54:12;4.25;;;2.53;;
65691;SDS011;52411;52.716;6.696;2024-02-14T13:56:38;4.55;;;2.53;;
65691;SDS011;52411;52.716;6.696;2024-02-14T13:59:03;6.05;;;3.20;;
65691;SDS011;52411;52.716;6.696;2024-02-14T14:01:29;5.07;;;2.50;;
65691;SDS011;52411;52.716;6.696;2024-02-14T14:03:55;4.97;;;2.78;;
65691;SDS011;52411;52.716;6.696;2024-02-14T14:06:21;4.70;;;2.45;;
65691;SDS011;52411;52.716;6.696;2024-02-14T14:08:49;5.40;;;2.80;;
65691;SDS011;52411;52.716;6.696;2024-02-14T14:11:15;6.40;;;2.65;;
65691;SDS011;52411;52.716;6.696;2024-02-14T14:13:40;5.25;;;2.58;;
65691;SDS011;52411;52.716;6.696;2024-02-14T14:16:06;4.63;;;2.70;;
65691;SDS011;52411;52.716;6.696;2024-02-14T14:18:32;4.60;;;2.42;;
65691;SDS011;52411;52.716;6.696;2024-02-14T14:20:57;4.75;;;2.53;;
65691;SDS011;52411;52.716;6.696;2024-02-14T14:23:23;5.45;;;2.65;;
65691;SDS011;52411;52.716;6.696;2024-02-14T14:25:49;4.72;;;2.15;;
65691;SDS011;52411;52.716;6.696;2024-02-14T14:28:14;4.28;;;2.42;;
65691;SDS011;52411;52.716;6.696;2024-02-14T14:30:40;4.25;;;2.45;;
65691;SDS011;52411;52.716;6.696;2024-02-14T14:33:06;4.50;;;2.65;;
65691;SDS011;52411;52.716;6.696;2024-02-14T14:35:36;4.65;;;3.15;;
65691;SDS011;52411;52.716;6.696;2024-02-14T14:38:02;3.80;;;2.20;;
65691;SDS011;52411;52.716;6.696;2024-02-14T14:40:28;5.35;;;2.65;;
65691;SDS011;52411;52.716;6.696;2024-02-14T14:42:54;4.95;;;2.72;;
65691;SDS011;52411;52.716;6.696;2024-02-14T14:45:20;4.70;;;2.65;;